»·PEaware :: SWA622 KSAN-KPHX

SWA622 :: KSAN-KPHX

FLIGHT INFORMATION

Flight Status: Arrived
Operator:
Southwest Airlines
More flights by this operator :: More flights under this callsign
Pilot: Judson K. (15650)
Aircraft: BOEING 737-300
(B733)
More flights by this aircraft type
Origin: KSAN San Diego Intl-Lindbergh
United States
Destination: KPHX Phoenix Sky Harbor Intl
United States
More flights between these airports :: More routes between these airports
Route: +ZZOOO1 IPL J18 BZA HOGGZ HYDRR1
File this flight plan on PilotEdge
Remarks: PBN / A1B3B4B5D3D4 DOF / 171010 REG / N372SB EET / KZAB0025 OPR / SWA RMK / TCAS SIMBRIEF
Altitude:
(Current/Filed)
35,000ft
Speed:
(Current/Filed)
418kts
Departed: 10-Oct-17 03:27 PM
Arrived: 10-Oct-17 04:58 PM
Distance/Time
Traveled:
264nm/1:31
Distance/Time
To Go:
Arrived

Flight Plot

Page will automatically refresh every two minutes.


Map Options




Map Legend


Flown Route
Filed Route
Departure Airport
Arrival Airport
Navaid (VOR, NDB)
Fix

Horizontal Profiles

Position Reports

Time Latitude Longitude Heading Altitude Ground
Speed
10-Oct-17 14:40 32.733200 -117.196869 134 24ft 0kts
10-Oct-17 14:41 32.733200 -117.196869 134 24ft 0kts
10-Oct-17 14:42 32.733200 -117.196869 134 24ft 0kts
10-Oct-17 14:43 32.733200 -117.196869 134 24ft 0kts
10-Oct-17 14:44 32.733200 -117.196869 134 24ft 0kts
10-Oct-17 14:45 32.733200 -117.196869 134 24ft 0kts
10-Oct-17 14:46 32.733200 -117.196869 134 24ft 0kts
10-Oct-17 14:47 32.733200 -117.196869 134 24ft 0kts
10-Oct-17 14:48 32.733200 -117.196869 134 24ft 0kts
10-Oct-17 14:49 32.733200 -117.196869 134 24ft 0kts
10-Oct-17 14:50 32.733200 -117.196869 134 24ft 0kts
10-Oct-17 14:51 32.733200 -117.196869 134 24ft 0kts
10-Oct-17 14:52 32.733200 -117.196869 134 24ft 0kts
10-Oct-17 14:53 32.733200 -117.196869 134 24ft 0kts
10-Oct-17 14:54 32.733200 -117.196869 134 24ft 0kts
10-Oct-17 14:55 32.733200 -117.196869 134 24ft 0kts
10-Oct-17 14:56 32.733200 -117.196869 134 24ft 0kts
10-Oct-17 14:57 32.733200 -117.196869 134 24ft 0kts
10-Oct-17 14:58 32.733200 -117.196869 134 24ft 0kts
10-Oct-17 14:59 32.733200 -117.196869 134 24ft 0kts
10-Oct-17 15:00 32.733200 -117.196869 134 24ft 0kts
10-Oct-17 15:01 32.733200 -117.196869 134 24ft 0kts
10-Oct-17 15:02 32.733200 -117.196869 134 24ft 0kts
10-Oct-17 15:03 32.733200 -117.196869 134 24ft 0kts
10-Oct-17 15:04 32.733200 -117.196869 134 24ft 0kts
10-Oct-17 15:05 32.733200 -117.196869 134 24ft 0kts
10-Oct-17 15:06 32.733200 -117.196869 134 24ft 0kts
10-Oct-17 15:07 32.733200 -117.196869 134 24ft 0kts
10-Oct-17 15:08 32.733200 -117.196869 134 24ft 0kts
10-Oct-17 15:09 32.733200 -117.196869 134 24ft 0kts
10-Oct-17 15:10 32.733200 -117.196869 134 24ft 0kts
10-Oct-17 15:11 32.733200 -117.196869 134 24ft 0kts
10-Oct-17 15:12 32.733200 -117.196869 134 24ft 0kts
10-Oct-17 15:13 32.733200 -117.196869 134 24ft 0kts
10-Oct-17 15:14 32.733200 -117.196869 134 24ft 0kts
10-Oct-17 15:15 32.733200 -117.196869 134 24ft 0kts
10-Oct-17 15:16 32.733200 -117.196869 134 24ft 0kts
10-Oct-17 15:17 32.733200 -117.196869 134 24ft 0kts
10-Oct-17 15:18 32.733570 -117.197313 134 24ft 0kts
10-Oct-17 15:19 32.733769 -117.197551 134 24ft 0kts
10-Oct-17 15:20 32.733769 -117.197551 134 24ft 0kts
10-Oct-17 15:21 32.733769 -117.197551 134 24ft 0kts
10-Oct-17 15:22 32.733769 -117.197551 134 24ft 0kts
10-Oct-17 15:23 32.733769 -117.197551 134 24ft 0kts
10-Oct-17 15:24 32.734053 -117.195962 105 24ft 11kts
10-Oct-17 15:25 32.732915 -117.191275 106 24ft 18kts
10-Oct-17 15:26 32.731309 -117.184639 106 24ft 23kts
10-Oct-17 15:27 32.729485 -117.176825 76 24ft 12kts
10-Oct-17 15:28 32.729554 -117.176587 69 24ft 4kts
10-Oct-17 15:30 32.730395 -117.176651 287 24ft 0kts
10-Oct-17 15:31 32.730395 -117.176651 287 24ft 0kts
10-Oct-17 15:32 32.737635 -117.205464 292 24ft 128kts
10-Oct-17 15:34 32.733211 -117.196857 134 24ft 0kts
10-Oct-17 15:35 32.733211 -117.196857 134 24ft 0kts
10-Oct-17 15:36 32.733211 -117.196857 134 24ft 0kts
10-Oct-17 15:37 32.733211 -117.196857 134 24ft 0kts
10-Oct-17 15:38 32.733211 -117.196857 134 24ft 0kts
10-Oct-17 15:39 32.733211 -117.196857 134 24ft 0kts
10-Oct-17 15:40 32.733211 -117.196857 134 24ft 0kts
10-Oct-17 15:41 32.733211 -117.196857 134 24ft 0kts
10-Oct-17 15:42 32.733211 -117.196857 134 24ft 0kts
10-Oct-17 15:43 32.733211 -117.196857 134 24ft 0kts
10-Oct-17 15:44 32.733211 -117.196857 134 24ft 0kts
10-Oct-17 15:45 32.733211 -117.196857 134 24ft 0kts
10-Oct-17 15:46 32.733211 -117.196857 134 24ft 0kts
10-Oct-17 15:47 32.733360 -117.197036 134 24ft 0kts
10-Oct-17 15:48 32.733613 -117.197340 134 24ft 0kts
10-Oct-17 15:49 32.733613 -117.197340 134 24ft 0kts
10-Oct-17 15:50 32.733610 -117.197337 134 24ft 0kts
10-Oct-17 15:51 32.733814 -117.195047 102 24ft 13kts
10-Oct-17 15:52 32.732566 -117.189837 103 24ft 19kts
10-Oct-17 15:53 32.730917 -117.183004 106 24ft 24kts
10-Oct-17 15:54 32.729517 -117.176705 71 24ft 0kts
10-Oct-17 15:55 32.729519 -117.176696 71 24ft 0kts
10-Oct-17 15:56 32.730305 -117.176298 287 24ft 0kts
10-Oct-17 15:57 32.734254 -117.192492 288 51ft 157kts
10-Oct-17 15:58 32.748083 -117.252183 287 2328ft 214kts
10-Oct-17 15:59 32.733881 -117.316972 193 4750ft 270kts
10-Oct-17 16:00 32.667245 -117.275401 145 7911ft 287kts
10-Oct-17 16:01 32.627373 -117.197982 96 10368ft 321kts
10-Oct-17 16:02 32.617527 -117.085156 96 12607ft 357kts
10-Oct-17 16:03 32.606456 -116.967022 97 15146ft 371kts
10-Oct-17 16:04 32.615561 -116.844626 76 17417ft 387kts
10-Oct-17 16:05 32.635591 -116.718396 83 19505ft 401kts
10-Oct-17 16:06 32.648379 -116.585784 83 21447ft 415kts
10-Oct-17 16:07 32.662412 -116.447942 82 23267ft 427kts
10-Oct-17 16:08 32.675859 -116.308297 83 24853ft 440kts
10-Oct-17 16:08 32.687265 -116.188230 83 26267ft 446kts
10-Oct-17 16:10 32.703354 -116.015927 83 27929ft 458kts
10-Oct-17 16:10 32.714492 -115.892509 83 29491ft 454kts
10-Oct-17 16:12 32.730351 -115.719846 83 31207ft 455kts
10-Oct-17 16:12 32.741578 -115.596105 83 32320ft 454kts
10-Oct-17 16:13 32.751088 -115.448021 88 33429ft 456kts
10-Oct-17 16:14 32.754214 -115.300952 88 34344ft 458kts
10-Oct-17 16:16 32.758236 -115.126133 87 34950ft 454kts
10-Oct-17 16:16 32.760923 -115.002619 88 34921ft 451kts
10-Oct-17 16:17 32.763741 -114.853694 87 34921ft 452kts
10-Oct-17 16:18 32.766556 -114.705744 88 34896ft 453kts
10-Oct-17 16:19 32.768985 -114.557525 88 32969ft 448kts
10-Oct-17 16:20 32.770587 -114.443356 88 31284ft 447kts
10-Oct-17 16:21 32.772547 -114.299713 89 29132ft 450kts
10-Oct-17 16:22 32.774376 -114.152208 89 26967ft 450kts
10-Oct-17 16:23 32.781799 -114.005560 82 25046ft 444kts
10-Oct-17 16:24 32.798112 -113.860086 83 24918ft 448kts
10-Oct-17 16:25 32.814055 -113.714297 83 24915ft 449kts
10-Oct-17 16:26 32.882819 -113.597962 45 24922ft 433kts
10-Oct-17 16:27 32.939152 -113.524053 47 24984ft 417kts
10-Oct-17 16:28 33.016517 -113.419901 47 22664ft 426kts
10-Oct-17 16:29 33.091138 -113.318722 48 20262ft 415kts
10-Oct-17 16:30 33.157474 -113.229398 48 17967ft 409kts
10-Oct-17 16:31 33.228915 -113.132484 48 16975ft 388kts
10-Oct-17 16:32 33.277397 -113.025955 91 17058ft 361kts
10-Oct-17 16:33 33.278872 -112.907018 89 17006ft 360kts
10-Oct-17 16:34 33.291502 -112.791725 66 17045ft 339kts
10-Oct-17 16:35 33.326532 -112.699746 65 16988ft 290kts
10-Oct-17 16:36 33.358709 -112.615488 65 17014ft 293kts
10-Oct-17 16:37 33.395097 -112.519997 65 12936ft 360kts
10-Oct-17 16:38 33.429108 -112.415543 82 12141ft 343kts
10-Oct-17 16:39 33.422055 -112.313870 127 11280ft 299kts
10-Oct-17 16:40 33.354295 -112.293567 189 10139ft 257kts
10-Oct-17 16:41 33.284778 -112.305277 189 8528ft 254kts
10-Oct-17 16:42 33.239298 -112.258432 82 6803ft 260kts
10-Oct-17 16:43 33.277506 -112.204224 352 5966ft 239kts
10-Oct-17 16:44 33.343472 -112.217994 350 5698ft 241kts
10-Oct-17 16:45 33.408094 -112.232120 350 5712ft 241kts
10-Oct-17 16:46 33.455361 -112.198490 91 5707ft 201kts
10-Oct-17 16:47 33.426657 -112.145172 111 5521ft 186kts
10-Oct-17 16:48 33.380168 -112.132963 190 6721ft 210kts
10-Oct-17 16:49 33.321160 -112.146401 190 5764ft 218kts
10-Oct-17 16:50 33.291001 -112.199802 260 5606ft 222kts
10-Oct-17 16:51 33.282876 -112.273247 263 5733ft 223kts
10-Oct-17 16:52 33.272308 -112.342635 260 5708ft 212kts
10-Oct-17 16:53 33.305670 -112.386158 349 5717ft 219kts
10-Oct-17 16:54 33.363977 -112.395567 350 5689ft 217kts
10-Oct-17 16:55 33.415795 -112.363564 40 5718ft 226kts
10-Oct-17 16:56 33.431306 -112.292670 91 5223ft 229kts
10-Oct-17 16:57 33.428953 -112.219655 90 4078ft 212kts
10-Oct-17 16:58 33.428821 -112.152485 90 2992ft 189kts
10-Oct-17 16:59 33.428857 -112.102092 89 2363ft 142kts
10-Oct-17 17:00 33.428861 -112.055787 88 1645ft 141kts
10-Oct-17 17:01 33.428880 -112.011138 90 1141ft 95kts
10-Oct-17 17:02 33.429473 -112.001747 2 1141ft 0kts
10-Oct-17 17:03 33.429949 -112.002172 299 1141ft 11kts
10-Oct-17 17:04 33.431651 -112.003216 1 1141ft 0kts
10-Oct-17 17:05 33.432841 -112.003190 90 1141ft 11kts
10-Oct-17 17:06 33.432911 -111.998513 55 1141ft 16kts
10-Oct-17 17:07 33.434055 -111.997291 77 1141ft 0kts
10-Oct-17 17:08 33.434055 -111.997291 77 1141ft 0kts

Navigation Log

Ident Type
1. KSAN Airport
2. JETTI Fix
3. ZZOOO Fix
4. JORRJ Fix
5. GRIDR Fix
6. BLUZE Fix
7. IPL Navaid
8. IPL Navaid
9. HEEDS Fix
10. BZA Navaid
11. HOGGZ Fix
12. JUDTH Fix
13. RKDAM Fix
14. HYDRR Fix
15. GEELA Fix
16. PUNNT Fix
17. TEICH Fix
18. TESLE Fix
19. FALGO Fix
20. CAGOR Fix
21. FOWLE Fix
22. KPHX Airport